createdAt,value
2022-07-29T00:02:29.765Z,66.95
2022-07-29T00:04:56.557Z,60.30
2022-07-29T00:07:23.306Z,57.17
2022-07-29T00:09:52.075Z,72.28
2022-07-29T00:12:25.265Z,61.95
2022-07-29T00:14:54.479Z,62.88
2022-07-29T00:17:21.258Z,60.10
2022-07-29T00:19:48.053Z,71.68
2022-07-29T00:22:14.970Z,51.85
2022-07-29T00:24:41.886Z,71.50
2022-07-29T00:27:08.663Z,66.57
2022-07-29T00:29:35.687Z,60.08
2022-07-29T00:32:03.599Z,59.67
2022-07-29T00:34:50.458Z,60.47
2022-07-29T00:37:17.321Z,62.63
2022-07-29T00:39:44.189Z,58.67
2022-07-29T00:42:11.206Z,66.07
2022-07-29T00:44:42.513Z,57.85
2022-07-29T00:47:11.653Z,52.75
2022-07-29T00:49:41.386Z,63.88
2022-07-29T00:52:10.952Z,48.25
2022-07-29T00:54:43.903Z,52.20
2022-07-29T00:57:11.999Z,52.55
2022-07-29T00:59:38.740Z,52.90
2022-07-29T01:02:05.718Z,51.50
2022-07-29T01:04:33.295Z,56.65
2022-07-29T01:07:03.205Z,49.50
2022-07-29T01:09:40.810Z,48.40
2022-07-29T01:12:20.354Z,56.13
2022-07-29T01:14:48.913Z,61.05
2022-07-29T01:17:24.122Z,52.97
2022-07-29T01:20:01.076Z,51.20
2022-07-29T01:23:37.808Z,65.22
2022-07-29T01:26:47.936Z,61.95
2022-07-29T01:29:36.236Z,65.00
2022-07-29T01:32:22.558Z,56.45
2022-07-29T01:35:09.951Z,52.40
2022-07-29T01:37:53.294Z,51.40
2022-07-29T01:40:46.237Z,59.35
2022-07-29T01:43:20.055Z,73.38
2022-07-29T01:45:54.843Z,66.85
2022-07-29T01:48:47.801Z,59.03
2022-07-29T01:51:33.383Z,57.08
2022-07-29T01:54:31.754Z,66.25
2022-07-29T01:57:00.890Z,72.25
2022-07-29T01:59:28.523Z,63.95
2022-07-29T02:01:58.836Z,60.53
2022-07-29T02:04:29.735Z,87.43
2022-07-29T02:07:03.190Z,68.90
2022-07-29T02:09:33.143Z,73.35
2022-07-29T02:12:02.206Z,79.28
2022-07-29T02:14:37.329Z,51.42
2022-07-29T02:17:04.516Z,54.72
2022-07-29T02:19:33.951Z,48.30
2022-07-29T02:22:02.202Z,42.97
2022-07-29T02:25:44.380Z,41.72
2022-07-29T02:28:12.919Z,96.18
2022-07-29T02:30:43.020Z,37.35
2022-07-29T02:33:14.024Z,67.97
2022-07-29T02:35:42.118Z,101.88
2022-07-29T02:38:32.386Z,59.85
2022-07-29T02:41:04.609Z,93.78
2022-07-29T02:43:33.761Z,135.68
2022-07-29T02:46:03.760Z,175.65
2022-07-29T02:48:42.725Z,255.00
2022-07-29T02:51:43.370Z,355.92
2022-07-29T02:54:20.650Z,534.20
2022-07-29T02:56:49.343Z,534.13
2022-07-29T02:59:19.403Z,540.00
2022-07-29T03:01:47.303Z,560.45
2022-07-29T03:04:15.798Z,494.45
2022-07-29T03:06:45.700Z,576.65
2022-07-29T03:09:14.238Z,618.67
2022-07-29T03:11:49.722Z,626.33
2022-07-29T03:14:20.392Z,631.70
2022-07-29T03:16:49.104Z,640.28
2022-07-29T03:19:17.241Z,606.22
2022-07-29T03:21:43.993Z,635.53
2022-07-29T03:24:11.166Z,707.97
2022-07-29T03:26:38.471Z,709.08
2022-07-29T03:29:05.230Z,746.55
2022-07-29T03:31:33.460Z,797.20
2022-07-29T03:34:00.553Z,768.90
2022-07-29T03:36:27.486Z,747.42
2022-07-29T03:38:55.463Z,1078.88
2022-07-29T03:41:24.804Z,1056.40
2022-07-29T03:43:54.571Z,1999.90
2022-07-29T03:46:24.961Z,1999.90
2022-07-29T03:48:57.365Z,779.45
2022-07-29T03:51:33.723Z,770.72
2022-07-29T03:54:09.837Z,767.60
2022-07-29T03:56:42.668Z,787.17
2022-07-29T03:59:10.589Z,792.95
2022-07-29T04:01:39.711Z,768.33
2022-07-29T04:04:06.746Z,756.03
2022-07-29T04:06:42.063Z,750.50
2022-07-29T04:09:10.170Z,760.13
2022-07-29T04:12:02.072Z,757.63
2022-07-29T04:14:26.210Z,761.13
2022-07-29T04:16:53.884Z,1999.90
2022-07-29T04:19:20.663Z,1999.90
2022-07-29T04:21:47.399Z,1999.90
2022-07-29T04:24:14.491Z,1999.90
2022-07-29T04:26:41.553Z,1999.90
2022-07-29T04:29:08.376Z,1999.90
2022-07-29T04:31:35.238Z,1999.90
2022-07-29T04:34:02.083Z,1999.90
2022-07-29T04:36:30.115Z,1999.90
2022-07-29T04:38:57.161Z,1999.90
2022-07-29T04:41:23.889Z,1999.90
2022-07-29T04:44:01.798Z,1999.90
2022-07-29T04:46:28.965Z,1999.90
2022-07-29T04:48:56.025Z,1999.90
2022-07-29T04:51:23.023Z,1999.90
2022-07-29T04:53:49.798Z,1999.90
2022-07-29T04:56:16.529Z,1999.90
2022-07-29T04:58:43.267Z,1999.90
2022-07-29T05:01:10.244Z,1999.90
2022-07-29T05:03:37.086Z,1999.90
2022-07-29T05:06:04.146Z,1999.90
2022-07-29T05:08:30.883Z,1999.90
2022-07-29T05:10:57.625Z,1999.90
2022-07-29T05:13:24.489Z,1999.90
2022-07-29T05:15:51.394Z,1999.90
2022-07-29T05:18:18.170Z,1999.90
2022-07-29T05:20:45.019Z,1999.90
2022-07-29T05:23:13.667Z,1999.90
2022-07-29T05:25:43.539Z,1107.25
2022-07-29T05:28:12.447Z,823.17
2022-07-29T05:30:39.471Z,753.28
2022-07-29T05:33:06.273Z,793.08
2022-07-29T05:57:54.960Z,754.67
2022-07-29T06:00:21.687Z,826.15
2022-07-29T06:02:48.515Z,843.15
2022-07-29T06:05:17.341Z,1999.90
2022-07-29T06:07:50.156Z,1999.90
2022-07-29T06:10:18.407Z,1999.90
2022-07-29T06:12:45.123Z,1999.90
2022-07-29T06:15:11.846Z,1999.90
2022-07-29T06:17:38.605Z,1999.90
2022-07-29T06:20:27.014Z,1999.90
2022-07-29T06:22:54.097Z,1999.90
2022-07-29T06:25:20.938Z,1999.90
2022-07-29T06:27:47.688Z,1999.90
2022-07-29T06:30:14.620Z,1999.90
2022-07-29T06:32:43.347Z,1999.90
2022-07-29T06:35:37.809Z,1999.90
2022-07-29T06:37:58.038Z,1060.93
2022-07-29T06:40:45.877Z,681.33
2022-07-29T06:43:12.735Z,630.97
2022-07-29T06:45:42.201Z,660.42
2022-07-29T06:48:10.407Z,639.33
2022-07-29T06:50:37.240Z,634.40
2022-07-29T06:53:04.753Z,644.65
2022-07-29T06:55:31.615Z,539.17
2022-07-29T06:57:58.470Z,602.80
2022-07-29T07:00:25.274Z,601.10
2022-07-29T07:02:52.159Z,595.75
2022-07-29T07:05:18.966Z,531.20
2022-07-29T07:07:45.741Z,582.85
2022-07-29T07:10:12.460Z,599.40
2022-07-29T07:12:39.185Z,571.38
2022-07-29T07:15:06.938Z,489.80
2022-07-29T07:17:33.732Z,550.28
2022-07-29T07:20:00.535Z,522.88
2022-07-29T07:22:27.265Z,449.83
2022-07-29T07:24:54.088Z,441.88
2022-07-29T07:27:20.833Z,358.50
2022-07-29T07:29:47.574Z,342.05
2022-07-29T07:32:17.041Z,355.27
2022-07-29T07:34:44.591Z,355.58
2022-07-29T07:37:11.457Z,354.50
2022-07-29T07:39:38.228Z,284.60
2022-07-29T07:42:05.107Z,298.52
2022-07-29T07:44:31.925Z,233.88
2022-07-29T07:46:59.255Z,194.85
2022-07-29T07:49:30.752Z,167.82
2022-07-29T07:51:57.637Z,149.98
2022-07-29T07:54:24.440Z,103.43
2022-07-29T07:56:53.056Z,96.75
2022-07-29T07:59:20.141Z,104.63
2022-07-29T08:01:47.837Z,108.68
2022-07-29T08:04:27.289Z,110.97
2022-07-29T08:06:56.983Z,83.80
2022-07-29T08:09:30.323Z,80.05
2022-07-29T08:11:59.740Z,65.28
2022-07-29T08:14:26.651Z,44.97
2022-07-29T08:16:53.431Z,53.88
2022-07-29T08:19:20.583Z,38.88
2022-07-29T08:21:47.411Z,46.65
2022-07-29T08:24:32.529Z,30.55
2022-07-29T08:26:59.390Z,31.70
2022-07-29T08:29:26.145Z,32.47
2022-07-29T08:31:53.211Z,39.08
2022-07-29T08:34:25.683Z,43.85
2022-07-29T08:36:55.989Z,37.40
2022-07-29T08:39:23.643Z,40.80
2022-07-29T08:41:56.818Z,43.30
2022-07-29T08:44:29.742Z,44.75
2022-07-29T08:46:58.247Z,47.22
2022-07-29T08:49:25.157Z,49.58
2022-07-29T08:51:52.532Z,48.15
2022-07-29T08:54:20.293Z,48.58
2022-07-29T08:56:52.644Z,50.75
2022-07-29T08:59:24.008Z,43.28
2022-07-29T09:01:55.004Z,36.60
2022-07-29T09:04:23.265Z,39.03
2022-07-29T09:06:53.146Z,35.75
2022-07-29T09:09:20.034Z,31.25
2022-07-29T09:11:47.754Z,27.75
2022-07-29T09:14:15.355Z,27.40
2022-07-29T09:16:57.279Z,24.33
2022-07-29T09:19:30.184Z,30.95
2022-07-29T09:22:00.201Z,32.00
2022-07-29T09:24:38.549Z,33.00
2022-07-29T09:27:19.748Z,27.77
2022-07-29T09:29:47.025Z,27.80
2022-07-29T09:32:14.261Z,28.50
2022-07-29T09:34:41.000Z,1999.90
2022-07-29T09:37:07.879Z,1999.90
2022-07-29T09:39:49.457Z,1999.90
2022-07-29T09:42:30.030Z,1999.90
2022-07-29T09:44:56.882Z,1999.90
2022-07-29T09:47:26.756Z,1999.90
2022-07-29T09:49:59.140Z,521.17
2022-07-29T09:52:30.969Z,1014.28
2022-07-29T09:55:13.578Z,1999.90
2022-07-29T09:57:46.338Z,29.55
2022-07-29T10:00:20.421Z,1999.90
2022-07-29T10:02:48.829Z,28.05
2022-07-29T10:05:22.079Z,26.55
2022-07-29T10:07:57.771Z,27.23
2022-07-29T10:10:37.634Z,27.60
2022-07-29T10:13:12.174Z,28.52
2022-07-29T10:15:47.249Z,28.75
2022-07-29T10:18:15.505Z,27.38
2022-07-29T10:20:42.837Z,28.58
2022-07-29T10:23:10.586Z,28.75
2022-07-29T10:25:37.764Z,25.15
2022-07-29T10:28:06.486Z,23.33
2022-07-29T10:30:33.445Z,23.92
2022-07-29T10:33:47.421Z,24.40
2022-07-29T10:36:53.546Z,26.08
2022-07-29T10:40:33.369Z,27.70
2022-07-29T10:43:20.185Z,27.63
2022-07-29T10:45:50.179Z,28.70
2022-07-29T10:48:17.261Z,29.40
2022-07-29T10:51:04.816Z,28.20
2022-07-29T10:53:54.029Z,28.20
2022-07-29T10:56:35.660Z,29.92
2022-07-29T10:59:21.696Z,30.10
2022-07-29T11:01:56.711Z,29.38
2022-07-29T11:04:45.123Z,29.00
2022-07-29T11:07:13.538Z,27.90
2022-07-29T11:09:41.998Z,27.33
2022-07-29T11:12:39.355Z,25.35
2022-07-29T11:15:18.241Z,25.98
2022-07-29T11:17:59.461Z,27.27
2022-07-29T11:20:44.247Z,26.42
2022-07-29T11:23:40.214Z,25.02
2022-07-29T11:26:23.253Z,28.92
2022-07-29T11:28:58.585Z,23.70
2022-07-29T11:31:44.788Z,27.27
2022-07-29T11:34:33.374Z,26.55
2022-07-29T11:37:10.542Z,23.52
2022-07-29T11:39:40.072Z,27.60
2022-07-29T11:42:32.211Z,24.98
2022-07-29T11:45:44.788Z,24.92
2022-07-29T11:48:28.334Z,22.85
2022-07-29T11:50:53.714Z,24.65
2022-07-29T11:53:21.230Z,23.38
2022-07-29T11:55:58.273Z,25.73
2022-07-29T11:58:28.259Z,1999.90
2022-07-29T12:00:56.177Z,1999.90
2022-07-29T12:03:35.119Z,1999.90
2022-07-29T12:06:13.318Z,1999.90
2022-07-29T12:08:44.604Z,1999.90
2022-07-29T12:11:20.364Z,1999.90
2022-07-29T12:13:49.169Z,1999.90
2022-07-29T12:16:16.423Z,1999.90
2022-07-29T12:19:02.488Z,1999.90
2022-07-29T12:21:56.400Z,521.35
2022-07-29T12:24:26.558Z,1999.90
2022-07-29T12:26:59.552Z,26.20
2022-07-29T12:29:34.814Z,26.02
2022-07-29T12:32:07.042Z,27.17
2022-07-29T12:34:41.988Z,22.52
2022-07-29T12:37:11.041Z,24.27
2022-07-29T12:39:38.126Z,23.00
2022-07-29T12:42:18.281Z,23.48
2022-07-29T12:44:51.115Z,26.77
2022-07-29T12:47:19.352Z,1999.90
2022-07-29T12:49:47.664Z,1999.90
2022-07-29T12:52:32.682Z,1999.90
2022-07-29T12:54:59.791Z,1999.90
2022-07-29T12:57:26.807Z,1999.90
2022-07-29T13:00:13.943Z,1999.90
2022-07-29T13:02:43.400Z,1999.90
2022-07-29T13:05:12.134Z,1999.90
2022-07-29T13:07:55.432Z,1999.90
2022-07-29T13:10:24.889Z,1999.90
2022-07-29T13:13:15.938Z,1999.90
2022-07-29T13:15:50.316Z,1999.90
2022-07-29T13:18:32.422Z,1999.90
2022-07-29T13:21:13.440Z,1999.90
2022-07-29T13:23:40.338Z,1508.30
2022-07-29T13:26:12.659Z,32.20
2022-07-29T13:28:39.911Z,27.45
2022-07-29T13:31:06.740Z,28.83
2022-07-29T13:33:33.620Z,27.00
2022-07-29T13:36:00.379Z,29.58
2022-07-29T13:38:31.110Z,28.13
2022-07-29T13:40:58.765Z,28.83
2022-07-29T13:43:25.516Z,28.33
2022-07-29T13:45:52.902Z,32.60
2022-07-29T13:48:19.676Z,31.58
2022-07-29T13:50:47.528Z,27.83
2022-07-29T13:53:17.967Z,28.25
2022-07-29T13:55:46.065Z,28.65
2022-07-29T13:58:13.036Z,29.65
2022-07-29T14:00:39.820Z,32.97
2022-07-29T14:03:07.299Z,29.15
2022-07-29T14:05:34.078Z,30.92
2022-07-29T14:08:00.947Z,30.95
2022-07-29T14:10:27.820Z,32.17
2022-07-29T14:12:54.626Z,32.58
2022-07-29T14:15:21.754Z,30.42
2022-07-29T14:17:48.535Z,36.00
2022-07-29T14:20:16.547Z,34.67
2022-07-29T14:22:44.909Z,31.73
2022-07-29T14:25:15.076Z,33.03
2022-07-29T14:27:44.235Z,31.40
2022-07-29T14:30:11.698Z,25.33
2022-07-29T14:32:38.440Z,29.38
2022-07-29T14:35:07.263Z,26.55
2022-07-29T14:37:39.368Z,28.60
2022-07-29T14:40:08.993Z,32.45
2022-07-29T14:42:36.989Z,29.38
2022-07-29T14:45:06.449Z,33.85
2022-07-29T14:47:33.364Z,32.95
2022-07-29T14:50:00.356Z,31.35
2022-07-29T14:52:27.108Z,31.80
2022-07-29T14:54:53.861Z,35.35
2022-07-29T14:57:20.808Z,36.20
2022-07-29T14:59:47.650Z,33.03
2022-07-29T15:02:14.446Z,35.28
2022-07-29T15:04:41.242Z,32.55
2022-07-29T15:07:08.241Z,29.48
2022-07-29T15:09:36.241Z,31.45
2022-07-29T15:12:07.728Z,30.02
2022-07-29T15:14:34.705Z,26.73
2022-07-29T15:17:01.449Z,30.73
2022-07-29T15:19:31.471Z,32.00
2022-07-29T15:21:59.765Z,28.38
2022-07-29T15:24:27.094Z,32.30
2022-07-29T15:26:54.707Z,29.98
2022-07-29T15:29:22.161Z,31.25
2022-07-29T15:31:49.124Z,31.52
2022-07-29T15:34:16.142Z,28.38
2022-07-29T15:36:51.923Z,30.80
2022-07-29T15:39:20.846Z,31.35
2022-07-29T15:41:47.833Z,27.15
2022-07-29T15:44:14.580Z,28.40
2022-07-29T15:47:00.342Z,30.35
2022-07-29T15:49:47.970Z,29.75
2022-07-29T15:52:25.940Z,29.90
2022-07-29T15:54:57.484Z,29.40
2022-07-29T15:57:25.402Z,26.50
2022-07-29T15:59:52.491Z,29.15
2022-07-29T16:02:19.521Z,29.48
2022-07-29T16:04:46.305Z,29.75
2022-07-29T16:07:14.216Z,29.75
2022-07-29T16:09:42.119Z,29.23
2022-07-29T16:12:10.585Z,28.90
2022-07-29T16:14:42.515Z,26.38
2022-07-29T16:17:09.250Z,29.38
2022-07-29T16:19:41.942Z,30.27
2022-07-29T16:22:08.843Z,27.83
2022-07-29T16:24:35.615Z,29.52
2022-07-29T16:27:02.412Z,27.70
2022-07-29T16:29:29.290Z,29.70
2022-07-29T16:31:56.164Z,30.13
2022-07-29T16:34:23.001Z,26.83
2022-07-29T16:36:49.725Z,29.80
2022-07-29T16:39:16.535Z,32.17
2022-07-29T16:41:43.265Z,26.73
2022-07-29T16:44:10.029Z,29.80
2022-07-29T16:46:37.333Z,31.38
2022-07-29T16:49:05.957Z,29.15
2022-07-29T16:51:32.900Z,31.25
2022-07-29T16:53:59.652Z,33.95
2022-07-29T16:56:26.437Z,31.88
2022-07-29T16:58:53.171Z,29.38
2022-07-29T17:01:19.965Z,31.08
2022-07-29T17:04:13.245Z,30.10
2022-07-29T17:06:41.395Z,32.00
2022-07-29T17:09:10.849Z,33.50
2022-07-29T17:11:52.402Z,31.55
2022-07-29T17:14:27.010Z,33.30
2022-07-29T17:17:01.132Z,34.90
2022-07-29T17:19:35.386Z,34.92
2022-07-29T17:22:18.656Z,33.78
2022-07-29T17:24:46.439Z,34.20
2022-07-29T17:27:14.488Z,34.78
2022-07-29T17:29:41.418Z,34.85
2022-07-29T17:32:09.716Z,32.97
2022-07-29T17:34:38.425Z,31.38
2022-07-29T17:37:07.841Z,33.85
2022-07-29T17:39:35.486Z,28.55
2022-07-29T17:42:04.362Z,27.83
2022-07-29T17:44:31.353Z,34.05
2022-07-29T17:46:59.704Z,35.83
2022-07-29T17:49:27.205Z,36.17
2022-07-29T17:51:57.677Z,34.80
2022-07-29T17:54:27.765Z,35.22
2022-07-29T17:56:54.506Z,32.92
2022-07-29T17:59:21.741Z,34.67
2022-07-29T18:01:48.603Z,32.58
2022-07-29T18:04:20.025Z,30.67
2022-07-29T18:06:46.956Z,31.58
2022-07-29T18:09:13.746Z,33.67
2022-07-29T18:11:40.590Z,32.13
2022-07-29T18:14:11.260Z,31.70
2022-07-29T18:16:38.390Z,31.90
2022-07-29T18:19:05.336Z,32.70
2022-07-29T18:21:45.655Z,33.30
2022-07-29T18:24:18.928Z,32.70
2022-07-29T18:26:45.686Z,31.95
2022-07-29T18:29:12.436Z,32.70
2022-07-29T18:31:40.989Z,33.88
2022-07-29T18:34:07.864Z,29.25
2022-07-29T18:36:34.663Z,33.47
2022-07-29T18:39:01.425Z,28.83
2022-07-29T18:41:28.177Z,32.00
2022-07-29T18:43:54.961Z,32.10
2022-07-29T18:46:21.793Z,29.13
2022-07-29T18:48:48.616Z,32.53
2022-07-29T18:51:15.739Z,32.25
2022-07-29T18:53:43.290Z,30.45
2022-07-29T18:56:10.106Z,31.27
2022-07-29T18:58:38.213Z,27.92
2022-07-29T19:01:05.777Z,27.23
2022-07-29T19:03:32.645Z,26.48
2022-07-29T19:05:59.464Z,26.92
2022-07-29T19:08:26.324Z,26.98
2022-07-29T19:10:53.424Z,25.25
2022-07-29T19:13:20.293Z,26.48
2022-07-29T19:15:47.155Z,27.77
2022-07-29T19:18:13.949Z,27.42
2022-07-29T19:20:41.919Z,27.40
2022-07-29T19:23:09.230Z,28.88
2022-07-29T19:25:37.289Z,32.50
2022-07-29T19:28:20.193Z,32.03
2022-07-29T19:30:46.961Z,27.70
2022-07-29T19:33:17.310Z,42.92
2022-07-29T19:35:45.240Z,43.08
2022-07-29T19:38:12.705Z,46.38
2022-07-29T19:40:39.646Z,27.85
2022-07-29T19:43:50.022Z,33.05
2022-07-29T19:45:53.928Z,48.08
2022-07-29T19:48:20.674Z,29.40
2022-07-29T19:50:47.602Z,49.20
2022-07-29T19:53:14.473Z,52.17
2022-07-29T19:55:42.375Z,64.25
2022-07-29T19:58:09.199Z,67.88
2022-07-29T20:00:35.982Z,86.35
2022-07-29T20:03:04.577Z,55.05
2022-07-29T20:05:31.699Z,86.57
2022-07-29T20:07:58.531Z,77.88
2022-07-29T20:10:25.445Z,75.55
2022-07-29T20:12:53.155Z,75.60
2022-07-29T20:15:22.206Z,82.10
2022-07-29T20:17:49.767Z,81.32
2022-07-29T20:20:18.602Z,58.40
2022-07-29T20:22:45.443Z,67.63
2022-07-29T20:25:13.362Z,71.03
2022-07-29T20:27:40.549Z,72.40
2022-07-29T20:30:09.004Z,71.82
2022-07-29T20:32:37.941Z,75.40
2022-07-29T20:35:05.038Z,93.82
2022-07-29T20:37:32.570Z,74.93
2022-07-29T20:39:59.323Z,95.13
2022-07-29T20:42:26.059Z,64.22
2022-07-29T20:44:53.871Z,94.07
2022-07-29T20:47:22.254Z,98.45
2022-07-29T20:49:49.161Z,95.10
2022-07-29T20:52:18.679Z,91.82
2022-07-29T20:54:49.018Z,92.32
2022-07-29T20:57:15.860Z,112.32
2022-07-29T20:59:45.800Z,121.80
2022-07-29T21:02:12.692Z,85.22
2022-07-29T21:04:41.437Z,151.50
2022-07-29T21:07:08.161Z,90.75
2022-07-29T21:09:34.917Z,65.65
2022-07-29T21:12:02.111Z,82.72
2022-07-29T21:14:40.938Z,110.53
2022-07-29T21:17:08.060Z,72.35
2022-07-29T21:19:35.580Z,97.55
2022-07-29T21:22:03.089Z,136.10
2022-07-29T21:24:29.900Z,66.63
2022-07-29T21:27:21.501Z,122.82
2022-07-29T21:32:30.035Z,103.03
2022-07-29T21:34:57.918Z,135.52
2022-07-29T21:37:24.704Z,118.20
2022-07-29T21:39:51.647Z,140.85
2022-07-29T21:42:18.669Z,110.65
2022-07-29T21:44:45.416Z,69.80
2022-07-29T21:47:12.223Z,57.70
2022-07-29T21:49:39.369Z,111.82
2022-07-29T21:52:07.896Z,117.63
2022-07-29T21:54:35.976Z,90.15
2022-07-29T21:57:03.774Z,67.82
2022-07-29T21:59:31.751Z,99.65
2022-07-29T22:02:01.820Z,179.15
2022-07-29T22:04:29.666Z,86.82
2022-07-29T22:06:58.771Z,109.53
2022-07-29T22:09:26.505Z,97.60
2022-07-29T22:11:54.211Z,136.75
2022-07-29T22:14:21.400Z,150.48
2022-07-29T22:16:48.860Z,131.65
2022-07-29T22:19:15.655Z,129.77
2022-07-29T22:21:42.985Z,149.48
2022-07-29T22:24:10.558Z,172.15
2022-07-29T22:26:38.301Z,181.98
2022-07-29T22:29:05.575Z,187.55
2022-07-29T22:31:32.373Z,216.35
2022-07-29T22:33:59.148Z,239.75
2022-07-29T22:36:26.354Z,340.33
2022-07-29T22:38:53.104Z,463.23
2022-07-29T22:41:19.846Z,229.80
2022-07-29T22:43:46.620Z,252.85
2022-07-29T22:46:13.414Z,478.42
2022-07-29T22:48:40.258Z,259.48
2022-07-29T22:51:07.057Z,444.77
2022-07-29T22:53:33.936Z,516.47
2022-07-29T22:56:00.687Z,458.13
2022-07-29T22:58:27.495Z,516.25
2022-07-29T23:00:54.474Z,310.35
2022-07-29T23:03:22.489Z,518.90
2022-07-29T23:05:51.440Z,530.67
2022-07-29T23:08:19.482Z,547.03
2022-07-29T23:10:46.851Z,541.67
2022-07-29T23:13:13.954Z,512.08
2022-07-29T23:15:41.317Z,501.70
2022-07-29T23:18:08.188Z,570.17
2022-07-29T23:20:35.204Z,569.80
2022-07-29T23:23:01.936Z,575.75
2022-07-29T23:25:28.945Z,530.42
2022-07-29T23:27:55.675Z,488.40
2022-07-29T23:30:22.569Z,535.22
2022-07-29T23:32:49.395Z,510.27
2022-07-29T23:35:16.166Z,549.47
2022-07-29T23:37:42.925Z,549.55
2022-07-29T23:40:14.223Z,569.95
2022-07-29T23:45:10.907Z,601.65
2022-07-29T23:47:37.904Z,598.15
2022-07-29T23:50:07.785Z,608.47
2022-07-29T23:52:35.624Z,594.58
2022-07-29T23:55:37.099Z,517.53
2022-07-29T23:57:49.746Z,575.90
